createdAt,value
2022-08-05T00:00:13.146Z,100643.34
2022-08-05T00:01:20.873Z,100645.43
2022-08-05T00:02:13.165Z,100645.15
2022-08-05T00:03:15.474Z,100649.31
2022-08-05T00:04:11.060Z,100643.11
2022-08-05T00:06:02.064Z,100642.48
2022-08-05T00:06:29.284Z,100639.95
2022-08-05T00:07:27.510Z,100642.18
2022-08-05T00:08:32.916Z,100641.46
2022-08-05T00:09:16.040Z,100641.46
2022-08-05T00:10:13.134Z,100643.82
2022-08-05T00:11:20.709Z,100641.54
2022-08-05T00:12:13.312Z,100637.35
2022-08-05T00:13:18.764Z,100643.13
2022-08-05T00:14:17.030Z,100643.02
2022-08-05T00:15:54.133Z,100644.26
2022-08-05T00:16:13.129Z,100645.17
2022-08-05T00:17:19.608Z,100645.03
2022-08-05T00:18:21.289Z,100646.41
2022-08-05T00:19:13.154Z,100642.49
2022-08-05T00:20:11.070Z,100644.25
2022-08-05T00:21:11.094Z,100637.87
2022-08-05T00:22:11.677Z,100637.53
2022-08-05T00:23:12.782Z,100638.80
2022-08-05T00:24:11.366Z,100641.51
2022-08-05T00:25:13.205Z,100644.26
2022-08-05T00:26:11.066Z,100645.18
2022-08-05T00:27:16.751Z,100644.48
2022-08-05T00:28:13.141Z,100646.88
2022-08-05T00:29:11.067Z,100640.11
2022-08-05T00:30:11.353Z,100646.20
2022-08-05T00:31:11.055Z,100644.30
2022-08-05T00:32:12.973Z,100643.46
2022-08-05T00:33:15.718Z,100644.27
2022-08-05T00:34:56.202Z,100643.22
2022-08-05T00:35:13.212Z,100645.72
2022-08-05T00:36:15.920Z,100645.97
2022-08-05T00:37:14.292Z,100646.28
2022-08-05T00:38:11.062Z,100645.45
2022-08-05T00:39:13.877Z,100643.36
2022-08-05T00:40:11.062Z,100646.06
2022-08-05T00:41:11.852Z,100641.93
2022-08-05T00:42:11.060Z,100643.80
2022-08-05T00:43:15.422Z,100643.53
2022-08-05T00:44:11.064Z,100640.69
2022-08-05T00:45:11.639Z,100637.25
2022-08-05T00:46:11.064Z,100636.40
2022-08-05T00:47:26.345Z,100635.88
2022-08-05T00:48:17.127Z,100635.46
2022-08-05T00:49:14.004Z,100640.77
2022-08-05T00:50:11.063Z,100640.00
2022-08-05T00:51:51.873Z,100646.03
2022-08-05T00:52:13.164Z,100645.26
2022-08-05T00:54:00.546Z,100649.77
2022-08-05T00:54:13.225Z,100650.55
2022-08-05T00:55:11.062Z,100646.61
2022-08-05T00:56:11.062Z,100644.60
2022-08-05T00:57:11.063Z,100644.05
2022-08-05T00:58:14.060Z,100639.59
2022-08-05T00:59:11.062Z,100644.48
2022-08-05T01:00:13.270Z,100646.30
2022-08-05T01:01:11.090Z,100645.24
2022-08-05T01:02:11.064Z,100650.46
2022-08-05T01:03:22.195Z,100649.04
2022-08-05T01:04:14.208Z,100651.40
2022-08-05T01:05:11.059Z,100651.82
2022-08-05T01:06:14.264Z,100653.47
2022-08-05T01:07:13.741Z,100651.01
2022-08-05T01:08:42.368Z,100650.77
2022-08-05T01:09:13.121Z,100655.80
2022-08-05T01:10:13.068Z,100653.20
2022-08-05T01:11:22.089Z,100655.37
2022-08-05T01:12:18.424Z,100658.23
2022-08-05T01:13:22.462Z,100660.77
2022-08-05T01:14:27.202Z,100662.06
2022-08-05T01:15:35.057Z,100658.04
2022-08-05T01:16:21.071Z,100660.68
2022-08-05T01:17:20.568Z,100659.88
2022-08-05T01:18:14.079Z,100658.59
2022-08-05T01:19:19.067Z,100653.41
2022-08-05T01:20:19.073Z,100651.04
2022-08-05T01:21:22.861Z,100647.22
2022-08-05T01:22:24.172Z,100646.26
2022-08-05T01:23:22.702Z,100639.73
2022-08-05T01:24:25.061Z,100641.47
2022-08-05T01:25:21.281Z,100639.29
2022-08-05T01:26:22.062Z,100638.47
2022-08-05T01:27:19.598Z,100633.35
2022-08-05T01:28:22.060Z,100636.36
2022-08-05T01:29:18.064Z,100632.06
2022-08-05T01:30:18.746Z,100633.16
2022-08-05T01:31:24.340Z,100636.27
2022-08-05T01:32:12.548Z,100639.60
2022-08-05T01:33:11.069Z,100638.53
2022-08-05T01:34:22.104Z,100637.89
2022-08-05T01:35:51.722Z,100638.88
2022-08-05T01:36:18.116Z,100640.56
2022-08-05T01:37:18.047Z,100640.07
2022-08-05T01:38:24.851Z,100640.55
2022-08-05T01:39:13.252Z,100636.81
2022-08-05T01:40:11.089Z,100640.37
2022-08-05T01:41:11.061Z,100639.90
2022-08-05T01:42:12.062Z,100641.22
2022-08-05T01:43:11.058Z,100640.12
2022-08-05T01:44:15.346Z,100639.68
2022-08-05T01:45:11.065Z,100639.81
2022-08-05T01:46:16.487Z,100642.10
2022-08-05T01:47:13.146Z,100644.41
2022-08-05T01:48:11.067Z,100642.15
2022-08-05T01:49:23.142Z,100646.78
2022-08-05T01:50:20.349Z,100648.09
2022-08-05T01:51:13.174Z,100645.37
2022-08-05T01:52:17.564Z,100642.84
2022-08-05T01:53:15.109Z,100642.95
2022-08-05T01:54:13.067Z,100643.91
2022-08-05T01:55:12.061Z,100646.38
2022-08-05T01:56:13.064Z,100646.30
2022-08-05T01:58:11.777Z,100651.59
2022-08-05T01:58:15.793Z,100650.68
2022-08-05T01:59:15.081Z,100654.06
2022-08-05T02:00:11.836Z,100655.88
2022-08-05T02:01:11.074Z,100656.04
2022-08-05T02:02:11.102Z,100655.14
2022-08-05T02:03:29.030Z,100654.56
2022-08-05T02:04:13.117Z,100657.98
2022-08-05T02:05:13.064Z,100661.96
2022-08-05T02:06:33.927Z,100665.16
2022-08-05T02:07:22.008Z,100666.15
2022-08-05T02:08:13.128Z,100667.91
2022-08-05T02:09:14.721Z,100673.82
2022-08-05T02:10:11.063Z,100674.15
2022-08-05T02:11:14.113Z,100673.58
2022-08-05T02:12:20.292Z,100673.58
2022-08-05T02:13:18.071Z,100673.77
2022-08-05T02:14:13.143Z,100671.38
2022-08-05T02:15:15.553Z,100670.88
2022-08-05T02:16:22.306Z,100667.49
2022-08-05T02:17:16.835Z,100666.81
2022-08-05T02:18:32.645Z,100662.02
2022-08-05T02:19:21.061Z,100662.30
2022-08-05T02:20:20.812Z,100661.55
2022-08-05T02:21:21.073Z,100661.99
2022-08-05T02:22:17.536Z,100663.78
2022-08-05T02:23:14.898Z,100662.72
2022-08-05T02:24:14.061Z,100664.84
2022-08-05T02:25:18.062Z,100669.69
2022-08-05T02:26:11.718Z,100669.28
2022-08-05T02:27:12.069Z,100668.34
2022-08-05T02:28:12.060Z,100667.52
2022-08-05T02:29:21.389Z,100665.78
2022-08-05T02:30:14.227Z,100667.08
2022-08-05T02:31:14.533Z,100666.36
2022-08-05T02:32:11.060Z,100667.57
2022-08-05T02:33:11.061Z,100672.80
2022-08-05T02:34:11.060Z,100671.30
2022-08-05T02:35:14.514Z,100671.61
2022-08-05T02:36:15.542Z,100672.54
2022-08-05T02:37:11.059Z,100676.45
2022-08-05T02:38:11.065Z,100670.01
2022-08-05T02:39:13.151Z,100680.30
2022-08-05T02:40:11.062Z,100680.41
2022-08-05T02:41:17.076Z,100679.14
2022-08-05T02:42:27.719Z,100679.86
2022-08-05T02:43:15.432Z,100680.34
2022-08-05T02:44:12.167Z,100673.04
2022-08-05T02:45:11.063Z,100681.88
2022-08-05T02:46:12.074Z,100680.50
2022-08-05T02:47:11.060Z,100682.39
2022-08-05T02:48:12.423Z,100680.36
2022-08-05T02:49:11.250Z,100681.14
2022-08-05T02:50:11.857Z,100678.54
2022-08-05T02:51:12.064Z,100680.25
2022-08-05T02:52:25.928Z,100679.09
2022-08-05T02:53:19.063Z,100681.62
2022-08-05T02:54:36.532Z,100682.89
2022-08-05T02:55:13.128Z,100688.17
2022-08-05T02:56:11.066Z,100680.06
2022-08-05T02:58:12.051Z,100686.00
2022-08-05T02:58:13.291Z,100686.32
2022-08-05T02:59:11.065Z,100686.93
2022-08-05T03:00:13.071Z,100687.82
2022-08-05T03:01:13.106Z,100688.95
2022-08-05T03:02:11.073Z,100684.35
2022-08-05T03:03:11.065Z,100689.21
2022-08-05T03:04:14.345Z,100690.21
2022-08-05T03:05:11.073Z,100690.16
2022-08-05T03:06:54.482Z,100691.68
2022-08-05T03:07:17.662Z,100693.38
2022-08-05T03:08:14.500Z,100690.14
2022-08-05T03:09:17.742Z,100689.54
2022-08-05T03:10:13.262Z,100688.73
2022-08-05T03:11:57.367Z,100686.49
2022-08-05T03:12:13.061Z,100686.86
2022-08-05T03:14:13.352Z,100684.57
2022-08-05T03:15:12.254Z,100686.77
2022-08-05T03:16:11.067Z,100686.73
2022-08-05T03:17:11.065Z,100682.62
2022-08-05T03:18:11.066Z,100683.50
2022-08-05T03:19:17.143Z,100689.61
2022-08-05T03:20:13.438Z,100686.35
2022-08-05T03:21:11.067Z,100686.79
2022-08-05T03:22:16.606Z,100688.52
2022-08-05T03:23:13.156Z,100683.02
2022-08-05T03:24:11.058Z,100684.46
2022-08-05T03:25:31.528Z,100687.85
2022-08-05T03:26:31.781Z,100687.94
2022-08-05T03:27:13.134Z,100692.07
2022-08-05T03:28:11.054Z,100691.77
2022-08-05T03:29:12.314Z,100689.41
2022-08-05T03:30:13.142Z,100687.76
2022-08-05T03:31:11.058Z,100686.28
2022-08-05T03:32:14.239Z,100686.39
2022-08-05T03:33:11.066Z,100684.96
2022-08-05T03:34:11.059Z,100688.04
2022-08-05T03:35:11.063Z,100684.75
2022-08-05T03:36:11.915Z,100683.14
2022-08-05T03:37:11.061Z,100688.84
2022-08-05T03:38:12.063Z,100691.30
2022-08-05T03:39:13.090Z,100689.21
2022-08-05T03:40:14.300Z,100691.30
2022-08-05T03:41:11.109Z,100688.44
2022-08-05T03:42:11.061Z,100690.49
2022-08-05T03:43:58.825Z,100689.06
2022-08-05T03:44:13.155Z,100688.35
2022-08-05T03:45:21.601Z,100687.89
2022-08-05T03:46:13.158Z,100684.32
2022-08-05T03:47:11.063Z,100687.12
2022-08-05T03:48:11.087Z,100690.25
2022-08-05T03:49:11.061Z,100689.23
2022-08-05T03:50:11.063Z,100690.59
2022-08-05T03:52:38.777Z,100690.88
2022-08-05T03:52:39.071Z,100692.29
2022-08-05T03:55:50.311Z,100693.52
2022-08-05T03:55:51.764Z,100692.21
2022-08-05T03:56:05.994Z,100690.81
2022-08-05T03:56:30.476Z,100690.37
2022-08-05T03:57:41.729Z,100692.80
2022-08-05T03:58:14.156Z,100689.95
2022-08-05T03:59:20.186Z,100694.27
2022-08-05T04:00:15.546Z,100693.56
2022-08-05T04:01:12.846Z,100693.67
2022-08-05T04:02:14.860Z,100694.16
2022-08-05T04:03:26.645Z,100695.81
2022-08-05T04:04:13.106Z,100693.67
2022-08-05T04:05:11.064Z,100693.41
2022-08-05T04:06:11.058Z,100698.03
2022-08-05T04:07:11.064Z,100694.16
2022-08-05T04:08:14.541Z,100697.41
2022-08-05T04:09:13.145Z,100693.28
2022-08-05T04:10:11.064Z,100693.78
2022-08-05T04:11:13.234Z,100698.45
2022-08-05T04:12:24.397Z,100694.29
2022-08-05T04:13:13.342Z,100695.33
2022-08-05T04:14:11.063Z,100698.14
2022-08-05T04:15:15.510Z,100699.62
2022-08-05T04:16:11.068Z,100698.03
2022-08-05T04:17:11.367Z,100702.87
2022-08-05T04:18:20.243Z,100700.35
2022-08-05T04:19:14.096Z,100703.08
2022-08-05T04:20:17.063Z,100701.85
2022-08-05T04:21:11.286Z,100702.03
2022-08-05T04:22:11.849Z,100704.36
2022-08-05T04:23:12.480Z,100709.91
2022-08-05T04:24:19.601Z,100709.48
2022-08-05T04:25:13.217Z,100711.73
2022-08-05T04:26:11.065Z,100716.40
2022-08-05T04:27:11.059Z,100715.70
2022-08-05T04:28:12.828Z,100714.07
2022-08-05T04:29:11.065Z,100714.57
2022-08-05T04:30:11.060Z,100714.86
2022-08-05T04:31:11.061Z,100713.70
2022-08-05T04:32:11.065Z,100720.17
2022-08-05T04:33:11.057Z,100718.36
2022-08-05T04:34:31.547Z,100718.80
2022-08-05T04:35:17.656Z,100718.05
2022-08-05T04:36:44.763Z,100720.78
2022-08-05T04:37:13.138Z,100719.36
2022-08-05T04:38:11.058Z,100719.64
2022-08-05T04:39:11.122Z,100718.98
2022-08-05T04:40:11.058Z,100718.25
2022-08-05T04:41:11.059Z,100722.64
2022-08-05T04:42:11.060Z,100722.61
2022-08-05T04:43:16.618Z,100722.28
2022-08-05T04:44:13.209Z,100722.13
2022-08-05T04:45:11.068Z,100725.80
2022-08-05T04:46:13.161Z,100724.98
2022-08-05T04:47:14.599Z,100724.88
2022-08-05T04:48:18.600Z,100725.23
2022-08-05T04:49:14.779Z,100731.16
2022-08-05T04:50:11.755Z,100731.26
2022-08-05T04:51:11.589Z,100728.02
2022-08-05T04:52:11.063Z,100726.81
2022-08-05T04:53:11.063Z,100728.20
2022-08-05T04:54:12.222Z,100726.28
2022-08-05T04:55:13.940Z,100726.62
2022-08-05T04:56:33.838Z,100727.32
2022-08-05T04:57:13.160Z,100730.34
2022-08-05T04:58:12.435Z,100735.02
2022-08-05T04:59:21.978Z,100735.13
2022-08-05T05:00:13.330Z,100734.75
2022-08-05T05:01:11.117Z,100738.37
2022-08-05T05:02:36.261Z,100736.63
2022-08-05T05:03:13.491Z,100737.01
2022-08-05T05:04:13.118Z,100741.57
2022-08-05T05:05:16.626Z,100741.68
2022-08-05T05:06:39.035Z,100738.66
2022-08-05T05:07:15.821Z,100739.98
2022-08-05T05:08:14.479Z,100741.08
2022-08-05T05:09:14.044Z,100740.09
2022-08-05T05:10:11.070Z,100743.71
2022-08-05T05:11:11.060Z,100744.92
2022-08-05T05:12:11.579Z,100745.16
2022-08-05T05:13:13.069Z,100746.47
2022-08-05T05:14:16.291Z,100745.36
2022-08-05T05:15:13.190Z,100748.50
2022-08-05T05:16:11.063Z,100749.92
2022-08-05T05:17:11.064Z,100750.09
2022-08-05T05:18:12.062Z,100750.05
2022-08-05T05:19:19.515Z,100750.15
2022-08-05T05:20:13.149Z,100752.07
2022-08-05T05:21:11.065Z,100750.66
2022-08-05T05:22:23.570Z,100753.89
2022-08-05T05:23:19.893Z,100753.28
2022-08-05T05:24:13.154Z,100754.21
2022-08-05T05:25:16.909Z,100755.59
2022-08-05T05:26:13.193Z,100754.32
2022-08-05T05:27:11.057Z,100755.25
2022-08-05T05:28:11.059Z,100756.96
2022-08-05T05:29:14.536Z,100755.75
2022-08-05T05:30:15.373Z,100761.35
2022-08-05T05:31:13.140Z,100761.25
2022-08-05T05:33:17.066Z,100766.07
2022-08-05T05:34:11.062Z,100765.20
2022-08-05T05:35:11.059Z,100765.46
2022-08-05T05:36:13.114Z,100765.41
2022-08-05T05:37:11.062Z,100764.98
2022-08-05T05:38:13.471Z,100767.89
2022-08-05T05:39:11.509Z,100768.10
2022-08-05T05:40:11.063Z,100771.35
2022-08-05T05:41:11.068Z,100773.98
2022-08-05T05:42:13.300Z,100779.09
2022-08-05T05:43:11.056Z,100777.00
2022-08-05T05:44:35.638Z,100780.35
2022-08-05T05:45:14.124Z,100781.13
2022-08-05T05:46:17.452Z,100778.88
2022-08-05T05:47:21.518Z,100781.34
2022-08-05T05:48:16.150Z,100778.65
2022-08-05T05:49:13.016Z,100781.72
2022-08-05T05:50:16.280Z,100784.96
2022-08-05T05:51:15.635Z,100783.33
2022-08-05T05:52:25.513Z,100783.75
2022-08-05T05:53:21.034Z,100785.84
2022-08-05T05:54:13.141Z,100783.76
2022-08-05T05:55:13.267Z,100786.56
2022-08-05T05:56:11.062Z,100793.54
2022-08-05T05:57:13.587Z,100791.45
2022-08-05T05:58:11.056Z,100792.00
2022-08-05T05:59:11.063Z,100794.80
2022-08-05T06:00:15.063Z,100795.02
2022-08-05T06:01:13.391Z,100797.10
2022-08-05T06:02:11.070Z,100801.12
2022-08-05T06:03:39.737Z,100797.11
2022-08-05T06:04:13.265Z,100800.40
2022-08-05T06:05:16.971Z,100801.12
2022-08-05T06:06:13.143Z,100802.98
2022-08-05T06:07:11.064Z,100803.09
2022-08-05T06:08:11.057Z,100801.34
2022-08-05T06:09:17.680Z,100804.58
2022-08-05T06:10:13.210Z,100808.69
2022-08-05T06:11:11.061Z,100805.41
2022-08-05T06:12:12.115Z,100806.38
2022-08-05T06:13:11.069Z,100808.87
2022-08-05T06:14:11.061Z,100808.86
2022-08-05T06:15:14.857Z,100810.01
2022-08-05T06:16:28.839Z,100809.07
2022-08-05T06:17:24.683Z,100809.07
2022-08-05T06:18:13.157Z,100809.68
2022-08-05T06:19:11.063Z,100813.53
2022-08-05T06:20:21.305Z,100812.09
2022-08-05T06:21:18.431Z,100816.16
2022-08-05T06:22:13.144Z,100809.57
2022-08-05T06:23:13.166Z,100814.07
2022-08-05T06:24:11.378Z,100820.93
2022-08-05T06:25:59.502Z,100821.76
2022-08-05T06:26:21.462Z,100821.02
2022-08-05T06:27:17.329Z,100818.72
2022-08-05T06:28:21.185Z,100818.72
2022-08-05T06:29:43.018Z,100820.20
2022-08-05T06:30:16.696Z,100822.28
2022-08-05T06:31:17.992Z,100820.96
2022-08-05T06:32:25.531Z,100815.45
2022-08-05T06:33:13.107Z,100820.13
2022-08-05T06:34:13.170Z,100819.30
2022-08-05T06:35:21.631Z,100821.43
2022-08-05T06:36:13.190Z,100820.34
2022-08-05T06:37:11.062Z,100816.71
2022-08-05T06:38:11.366Z,100823.25
2022-08-05T06:39:11.131Z,100825.05
2022-08-05T06:40:11.063Z,100823.45
2022-08-05T06:41:11.646Z,100826.20
2022-08-05T06:42:11.062Z,100825.39
2022-08-05T06:43:59.723Z,100827.62
2022-08-05T06:44:13.160Z,100825.10
2022-08-05T06:45:20.897Z,100825.37
2022-08-05T06:46:13.166Z,100829.02
2022-08-05T06:48:11.426Z,100828.09
2022-08-05T06:48:53.701Z,100825.10
2022-08-05T06:49:13.160Z,100831.49
2022-08-05T06:50:11.064Z,100830.68
2022-08-05T06:51:23.755Z,100830.57
2022-08-05T06:52:38.301Z,100834.89
2022-08-05T06:53:27.865Z,100839.61
2022-08-05T06:54:18.167Z,100832.59
2022-08-05T06:55:13.147Z,100842.48
2022-08-05T06:56:25.629Z,100840.50
2022-08-05T06:57:56.795Z,100840.54
2022-08-05T06:58:30.182Z,100839.55
2022-08-05T06:59:13.219Z,100843.98
2022-08-05T07:00:11.059Z,100847.98
2022-08-05T07:01:11.089Z,100843.23
2022-08-05T07:02:11.063Z,100844.09
2022-08-05T07:03:11.081Z,100842.82
2022-08-05T07:04:11.063Z,100845.94
2022-08-05T07:05:14.238Z,100851.11
2022-08-05T07:06:15.169Z,100848.47
2022-08-05T07:07:11.058Z,100851.10
2022-08-05T07:08:11.247Z,100851.24
2022-08-05T07:09:11.064Z,100853.20
2022-08-05T07:10:11.059Z,100851.94
2022-08-05T07:11:15.306Z,100854.29
2022-08-05T07:12:11.072Z,100852.30
2022-08-05T07:13:15.064Z,100851.32
2022-08-05T07:14:20.749Z,100853.78
2022-08-05T07:15:34.511Z,100852.45
2022-08-05T07:18:00.756Z,100847.66
2022-08-05T07:18:01.837Z,100851.59
2022-08-05T07:18:17.785Z,100849.41
2022-08-05T07:19:16.109Z,100847.15
2022-08-05T07:20:34.044Z,100851.37
2022-08-05T07:21:13.211Z,100843.13
2022-08-05T07:22:11.071Z,100849.08
2022-08-05T07:23:13.036Z,100850.93
2022-08-05T07:24:13.150Z,100849.28
2022-08-05T07:25:54.153Z,100848.21
2022-08-05T07:26:13.382Z,100851.63
2022-08-05T07:27:11.056Z,100847.66
2022-08-05T07:28:17.109Z,100848.45
2022-08-05T07:29:13.155Z,100850.74
2022-08-05T07:30:24.366Z,100853.07
2022-08-05T07:31:13.147Z,100853.73
2022-08-05T07:32:11.066Z,100858.03
2022-08-05T07:33:16.036Z,100858.94
2022-08-05T07:34:13.964Z,100855.25
2022-08-05T07:35:55.961Z,100862.94
2022-08-05T07:36:20.839Z,100864.04
2022-08-05T07:37:13.143Z,100868.16
2022-08-05T07:38:12.390Z,100870.16
2022-08-05T07:39:50.369Z,100873.99
2022-08-05T07:40:31.472Z,100872.98
2022-08-05T07:42:09.286Z,100872.84
2022-08-05T07:42:15.427Z,100875.54
2022-08-05T07:43:14.487Z,100869.63
2022-08-05T07:44:19.197Z,100873.89
2022-08-05T07:45:13.219Z,100874.31
2022-08-05T07:46:20.804Z,100871.96
2022-08-05T07:47:14.772Z,100875.27
2022-08-05T07:48:11.061Z,100873.12
2022-08-05T07:49:11.059Z,100872.90
2022-08-05T07:50:11.066Z,100872.49
2022-08-05T07:51:23.571Z,100869.53
2022-08-05T07:52:13.146Z,100880.05
2022-08-05T07:53:11.061Z,100878.80
2022-08-05T07:54:12.662Z,100882.88
2022-08-05T07:55:44.607Z,100885.77
2022-08-05T07:57:02.874Z,100887.93
2022-08-05T07:57:41.265Z,100884.22
2022-08-05T07:58:54.484Z,100879.40
2022-08-05T07:59:13.104Z,100877.00
2022-08-05T08:00:11.563Z,100876.84
2022-08-05T08:01:12.313Z,100879.54
2022-08-05T08:02:15.860Z,100882.16
2022-08-05T08:03:15.974Z,100882.94
2022-08-05T08:04:11.060Z,100886.22
2022-08-05T08:05:11.371Z,100880.98
2022-08-05T08:06:11.066Z,100881.89
2022-08-05T08:07:11.063Z,100889.39
2022-08-05T08:08:12.390Z,100887.93
2022-08-05T08:09:11.069Z,100891.21
2022-08-05T08:10:11.063Z,100895.03
2022-08-05T08:11:15.927Z,100888.44
2022-08-05T08:12:35.370Z,100893.68
2022-08-05T08:13:13.131Z,100892.91
2022-08-05T08:14:18.249Z,100891.04
2022-08-05T08:15:15.341Z,100893.21
2022-08-05T08:16:35.649Z,100894.44
2022-08-05T08:17:16.459Z,100894.03
2022-08-05T08:18:13.911Z,100894.43
2022-08-05T08:19:37.969Z,100898.20
2022-08-05T08:20:44.053Z,100898.93
2022-08-05T08:21:17.520Z,100898.16
2022-08-05T08:22:11.062Z,100899.93
2022-08-05T08:23:59.963Z,100908.39
2022-08-05T08:24:14.263Z,100899.91
2022-08-05T08:25:16.367Z,100897.75
2022-08-05T08:26:13.139Z,100897.62
2022-08-05T08:27:11.067Z,100901.48
2022-08-05T08:28:18.954Z,100905.89
2022-08-05T08:29:29.339Z,100897.03
2022-08-05T08:30:29.858Z,100900.63
2022-08-05T08:31:15.059Z,100904.76
2022-08-05T08:32:11.060Z,100902.86
2022-08-05T08:33:13.775Z,100900.69
2022-08-05T08:34:11.059Z,100901.76
2022-08-05T08:35:13.618Z,100897.61
2022-08-05T08:36:37.490Z,100896.13
2022-08-05T08:37:13.226Z,100895.68
2022-08-05T08:38:16.431Z,100896.86
2022-08-05T08:39:15.741Z,100897.29
2022-08-05T08:40:13.136Z,100892.32
2022-08-05T08:41:14.048Z,100896.79
2022-08-05T08:42:32.513Z,100899.17
2022-08-05T08:45:04.465Z,100891.83
2022-08-05T08:45:18.161Z,100900.37
2022-08-05T08:45:22.868Z,100897.22
2022-08-05T08:46:16.260Z,100898.73
2022-08-05T08:47:21.676Z,100895.73
2022-08-05T08:48:42.954Z,100891.25
2022-08-05T08:50:07.582Z,100891.48
2022-08-05T08:50:30.988Z,100893.75
2022-08-05T08:52:04.406Z,100895.49
2022-08-05T08:52:15.193Z,100894.94
2022-08-05T08:53:12.176Z,100887.20
2022-08-05T08:54:11.064Z,100888.50
2022-08-05T08:55:13.214Z,100895.57
2022-08-05T08:56:11.067Z,100893.47
2022-08-05T08:57:13.367Z,100891.80
2022-08-05T08:58:12.956Z,100898.71
2022-08-05T08:59:19.457Z,100899.71
2022-08-05T09:00:13.231Z,100897.50
2022-08-05T09:01:15.785Z,100897.16
2022-08-05T09:02:13.218Z,100897.59
2022-08-05T09:03:11.064Z,100899.47
2022-08-05T09:04:11.063Z,100902.57
2022-08-05T09:05:17.708Z,100902.17
2022-08-05T09:06:15.746Z,100904.91
2022-08-05T09:07:19.585Z,100905.92
2022-08-05T09:08:13.202Z,100900.98
2022-08-05T09:09:11.072Z,100901.39
2022-08-05T09:10:11.066Z,100898.09
2022-08-05T09:11:13.683Z,100904.71
2022-08-05T09:12:19.982Z,100902.86
2022-08-05T09:13:15.964Z,100900.77
2022-08-05T09:14:57.403Z,100904.24
2022-08-05T09:15:13.199Z,100909.64
2022-08-05T09:16:14.699Z,100898.57
2022-08-05T09:17:41.417Z,100899.66
2022-08-05T09:18:13.393Z,100899.08
2022-08-05T09:19:12.022Z,100895.33
2022-08-05T09:20:11.085Z,100904.76
2022-08-05T09:21:11.531Z,100902.89
2022-08-05T09:22:23.300Z,100902.74
2022-08-05T09:23:18.940Z,100898.60
2022-08-05T09:24:11.089Z,100893.21
2022-08-05T09:25:14.041Z,100891.83
2022-08-05T09:26:15.872Z,100896.10
2022-08-05T09:27:13.206Z,100894.81
2022-08-05T09:28:23.221Z,100904.29
2022-08-05T09:29:11.059Z,100898.96
2022-08-05T09:30:16.502Z,100898.11
2022-08-05T09:31:22.458Z,100899.57
2022-08-05T09:32:41.098Z,100899.33
2022-08-05T09:33:15.294Z,100896.86
2022-08-05T09:34:11.060Z,100899.75
2022-08-05T09:35:26.693Z,100899.02
2022-08-05T09:36:16.309Z,100896.34
2022-08-05T09:37:19.061Z,100900.20
2022-08-05T09:38:17.916Z,100896.11
2022-08-05T09:39:18.135Z,100896.43
2022-08-05T09:40:17.188Z,100898.65
2022-08-05T09:41:11.065Z,100900.25
2022-08-05T09:42:17.408Z,100900.41
2022-08-05T09:43:24.137Z,100899.93
2022-08-05T09:44:11.181Z,100909.48
2022-08-05T09:46:04.567Z,100901.86
2022-08-05T09:46:21.080Z,100904.58
2022-08-05T09:47:17.261Z,100902.57
2022-08-05T09:48:19.070Z,100902.63
2022-08-05T09:49:19.870Z,100898.92
2022-08-05T09:50:11.065Z,100906.80
2022-08-05T09:51:15.192Z,100902.86
2022-08-05T09:52:20.061Z,100906.53
2022-08-05T09:53:13.079Z,100903.75
2022-08-05T09:54:14.228Z,100904.70
2022-08-05T09:55:56.369Z,100905.47
2022-08-05T09:56:13.631Z,100899.48
2022-08-05T09:57:20.791Z,100904.47
2022-08-05T09:58:15.132Z,100902.35
2022-08-05T09:59:16.912Z,100902.54
2022-08-05T10:00:17.152Z,100903.79
2022-08-05T10:01:13.744Z,100900.36
2022-08-05T10:02:11.099Z,100902.97
2022-08-05T10:03:13.064Z,100901.64
2022-08-05T10:04:13.174Z,100904.44
2022-08-05T10:05:15.065Z,100895.93
2022-08-05T10:06:14.825Z,100900.98
2022-08-05T10:07:20.015Z,100906.44
2022-08-05T10:08:36.032Z,100904.52
2022-08-05T10:09:27.581Z,100905.48
2022-08-05T10:10:15.324Z,100901.13
2022-08-05T10:11:15.065Z,100900.38
2022-08-05T10:12:31.103Z,100899.39
2022-08-05T10:13:14.639Z,100898.65
2022-08-05T10:14:19.066Z,100900.60
2022-08-05T10:15:17.111Z,100898.57
2022-08-05T10:16:19.069Z,100900.39
2022-08-05T10:17:37.757Z,100906.23
2022-08-05T10:18:19.334Z,100898.48
2022-08-05T10:19:11.815Z,100898.47
2022-08-05T10:20:12.090Z,100899.96
2022-08-05T10:21:15.643Z,100899.26
2022-08-05T10:22:15.687Z,100901.45
2022-08-05T10:23:33.940Z,100911.77
2022-08-05T10:24:13.537Z,100904.78
2022-08-05T10:25:11.063Z,100904.00
2022-08-05T10:26:13.881Z,100903.40
2022-08-05T10:27:11.089Z,100895.48
2022-08-05T10:28:17.700Z,100896.79
2022-08-05T10:29:13.069Z,100904.38
2022-08-05T10:31:20.957Z,100900.90
2022-08-05T10:32:52.206Z,100904.32
2022-08-05T10:32:53.996Z,100907.09
2022-08-05T10:33:15.051Z,100901.54
2022-08-05T10:34:11.062Z,100897.96
2022-08-05T10:35:11.058Z,100900.18
2022-08-05T10:36:11.067Z,100904.96
2022-08-05T10:37:11.060Z,100897.32
2022-08-05T10:38:11.888Z,100902.60
2022-08-05T10:39:24.320Z,100901.29
2022-08-05T10:40:22.487Z,100906.18
2022-08-05T10:41:23.473Z,100904.63
2022-08-05T10:42:22.841Z,100907.55
2022-08-05T10:43:23.242Z,100917.86
2022-08-05T10:44:15.096Z,100907.50
2022-08-05T10:45:21.153Z,100914.84
2022-08-05T10:46:13.169Z,100916.88
2022-08-05T10:47:26.298Z,100916.55
2022-08-05T10:48:31.460Z,100916.22
2022-08-05T10:49:16.970Z,100913.40
2022-08-05T10:50:32.108Z,100916.41
2022-08-05T10:51:22.210Z,100912.17
2022-08-05T10:52:11.062Z,100908.18
2022-08-05T10:53:19.064Z,100911.79
2022-08-05T10:54:28.258Z,100913.87
2022-08-05T10:55:16.032Z,100911.02
2022-08-05T10:56:25.415Z,100913.54
2022-08-05T10:57:15.230Z,100922.14
2022-08-05T10:58:15.558Z,100916.90
2022-08-05T10:59:12.497Z,100916.00
2022-08-05T11:00:19.058Z,100918.44
2022-08-05T11:01:11.397Z,100917.36
2022-08-05T11:02:14.057Z,100920.54
2022-08-05T11:03:25.979Z,100921.08
2022-08-05T11:04:21.318Z,100920.30
2022-08-05T11:05:12.066Z,100919.82
2022-08-05T11:06:15.284Z,100923.11
2022-08-05T11:07:15.063Z,100925.23
2022-08-05T11:08:34.321Z,100927.25
2022-08-05T11:09:31.877Z,100925.25
2022-08-05T11:10:27.526Z,100927.91
2022-08-05T11:11:19.073Z,100921.65
2022-08-05T11:12:19.069Z,100923.21
2022-08-05T11:13:11.068Z,100918.02
2022-08-05T11:14:11.070Z,100914.33
2022-08-05T11:15:20.888Z,100917.13
2022-08-05T11:16:19.070Z,100922.20
2022-08-05T11:17:58.034Z,100921.62
2022-08-05T11:18:21.334Z,100923.96
2022-08-05T11:20:17.644Z,100922.94
2022-08-05T11:20:21.290Z,100924.19
2022-08-05T11:21:19.068Z,100918.92
2022-08-05T11:22:19.067Z,100923.19
2022-08-05T11:23:19.060Z,100924.42
2022-08-05T11:24:29.768Z,100928.43
2022-08-05T11:26:04.486Z,100927.62
2022-08-05T11:26:32.250Z,100927.60